createdAt,value
2019-02-12T00:01:27.716Z,4.95
2019-02-12T00:03:58.805Z,4.97
2019-02-12T00:06:28.882Z,4.90
2019-02-12T00:09:08.591Z,3.85
2019-02-12T00:11:40.704Z,4.22
2019-02-12T00:14:22.960Z,4.30
2019-02-12T00:16:53.940Z,4.67
2019-02-12T00:19:24.944Z,4.55
2019-02-12T00:21:55.028Z,4.58
2019-02-12T00:24:31.076Z,4.85
2019-02-12T00:27:01.180Z,3.50
2019-02-12T00:29:32.172Z,3.98
2019-02-12T00:32:02.265Z,3.22
2019-02-12T00:34:32.438Z,4.50
2019-02-12T00:37:06.576Z,5.35
2019-02-12T00:39:37.636Z,4.12
2019-02-12T00:42:08.664Z,3.70
2019-02-12T00:44:38.732Z,3.27
2019-02-12T00:47:09.720Z,4.00
2019-02-12T00:49:41.790Z,4.30
2019-02-12T00:52:11.900Z,3.08
2019-02-12T00:54:41.975Z,3.85
2019-02-12T00:57:14.628Z,3.27
2019-02-12T00:59:45.651Z,3.52
2019-02-12T01:02:16.757Z,3.47
2019-02-12T01:04:49.095Z,3.62
2019-02-12T01:07:23.292Z,3.25
2019-02-12T01:09:53.380Z,2.87
2019-02-12T01:12:32.320Z,3.35
2019-02-12T01:15:02.414Z,2.55
2019-02-12T01:17:33.460Z,3.20
2019-02-12T01:20:07.724Z,2.80
2019-02-12T01:22:37.836Z,2.40
2019-02-12T01:25:09.036Z,2.20
2019-02-12T01:27:39.056Z,2.58
2019-02-12T01:30:16.900Z,3.15
2019-02-12T01:32:47.180Z,3.12
2019-02-12T01:35:17.310Z,2.17
2019-02-12T01:37:47.372Z,3.52
2019-02-12T01:40:17.459Z,3.05
2019-02-12T01:42:47.577Z,2.90
2019-02-12T01:45:20.721Z,2.65
2019-02-12T01:47:50.810Z,2.25
2019-02-12T01:50:29.921Z,3.33
2019-02-12T01:53:11.904Z,2.52
2019-02-12T01:55:42.001Z,2.70
2019-02-12T01:58:15.103Z,2.45
2019-02-12T02:00:46.158Z,2.10
2019-02-12T02:03:16.229Z,2.42
2019-02-12T02:05:47.289Z,2.60
2019-02-12T02:08:18.369Z,2.58
2019-02-12T02:10:48.429Z,1.92
2019-02-12T02:13:25.253Z,1.82
2019-02-12T02:15:55.328Z,2.30
2019-02-12T02:18:34.421Z,2.05
2019-02-12T02:21:04.501Z,2.00
2019-02-12T02:23:36.577Z,1.95
2019-02-12T02:26:06.662Z,2.62
2019-02-12T02:28:40.908Z,2.20
2019-02-12T02:31:13.257Z,2.72
2019-02-12T02:33:50.157Z,1.87
2019-02-12T02:36:20.251Z,2.15
2019-02-12T02:38:50.340Z,2.05
2019-02-12T02:41:20.393Z,1.80
2019-02-12T02:43:50.477Z,1.85
2019-02-12T02:46:20.561Z,2.05
2019-02-12T02:48:56.380Z,1.65
2019-02-12T02:51:30.485Z,1.90
2019-02-12T02:54:01.565Z,2.17
2019-02-12T02:56:37.709Z,1.70
2019-02-12T02:59:10.932Z,2.55
2019-02-12T03:01:41.014Z,1.85
2019-02-12T03:04:16.881Z,1.77
2019-02-12T03:06:48.964Z,2.37
2019-02-12T03:09:19.063Z,1.95
2019-02-12T03:11:49.193Z,2.72
2019-02-12T03:14:20.097Z,2.65
2019-02-12T03:16:54.218Z,2.30
2019-02-12T03:19:25.263Z,2.62
2019-02-12T03:22:03.471Z,2.72
2019-02-12T03:24:27.139Z,2.45
2019-02-12T03:26:57.217Z,3.52
2019-02-12T03:29:27.282Z,2.77
2019-02-12T03:31:58.431Z,3.05
2019-02-12T03:34:28.497Z,3.02
2019-02-12T03:36:58.592Z,2.95
2019-02-12T03:39:28.669Z,4.28
2019-02-12T03:41:59.767Z,5.05
2019-02-12T03:44:30.058Z,4.90
2019-02-12T03:47:01.061Z,4.03
2019-02-12T03:49:31.137Z,4.62
2019-02-12T03:52:01.231Z,5.78
2019-02-12T03:54:31.389Z,4.70
2019-02-12T03:57:01.609Z,5.28
2019-02-12T03:59:31.833Z,4.72
2019-02-12T04:02:02.921Z,4.78
2019-02-12T04:04:33.282Z,5.30
2019-02-12T04:07:03.389Z,5.65
2019-02-12T04:09:34.445Z,5.03
2019-02-12T04:12:04.547Z,4.50
2019-02-12T04:14:34.625Z,3.90
2019-02-12T04:17:04.714Z,4.03
2019-02-12T04:19:34.797Z,4.10
2019-02-12T04:22:05.029Z,3.70
2019-02-12T04:24:35.115Z,3.92
2019-02-12T04:27:05.197Z,3.27
2019-02-12T04:29:35.292Z,3.95
2019-02-12T04:32:05.375Z,2.70
2019-02-12T04:34:35.470Z,4.42
2019-02-12T04:37:05.555Z,4.03
2019-02-12T04:39:35.648Z,3.52
2019-02-12T04:42:05.737Z,3.92
2019-02-12T04:44:35.814Z,3.30
2019-02-12T04:47:05.927Z,3.40
2019-02-12T04:49:36.001Z,3.27
2019-02-12T04:52:07.260Z,3.98
2019-02-12T04:54:37.344Z,4.87
2019-02-12T04:57:07.429Z,3.45
2019-02-12T04:59:38.517Z,3.10
2019-02-12T05:02:08.589Z,3.80
2019-02-12T05:04:38.683Z,2.45
2019-02-12T05:07:08.779Z,3.10
2019-02-12T05:09:42.957Z,5.05
2019-02-12T05:12:15.047Z,3.22
2019-02-12T05:14:45.785Z,4.30
2019-02-12T05:17:15.889Z,2.92
2019-02-12T05:19:46.017Z,3.45
2019-02-12T05:22:16.082Z,4.17
2019-02-12T05:24:46.154Z,4.35
2019-02-12T05:27:16.245Z,4.30
2019-02-12T05:29:46.318Z,3.72
2019-02-12T05:32:16.446Z,4.12
2019-02-12T05:34:46.513Z,3.42
2019-02-12T05:37:16.889Z,3.70
2019-02-12T05:39:47.886Z,2.58
2019-02-12T05:42:17.978Z,3.27
2019-02-12T05:44:48.066Z,3.35
2019-02-12T05:47:18.141Z,3.40
2019-02-12T05:49:48.469Z,3.60
2019-02-12T05:52:18.542Z,3.33
2019-02-12T05:54:48.693Z,3.70
2019-02-12T05:57:19.065Z,3.10
2019-02-12T05:59:49.267Z,2.70
2019-02-12T06:02:22.997Z,2.72
2019-02-12T06:04:53.070Z,3.05
2019-02-12T06:07:23.149Z,3.27
2019-02-12T06:09:53.253Z,2.83
2019-02-12T06:12:23.338Z,2.67
2019-02-12T06:14:53.441Z,3.47
2019-02-12T06:17:29.391Z,3.27
2019-02-12T06:19:59.477Z,2.20
2019-02-12T06:22:29.565Z,2.40
2019-02-12T06:24:59.665Z,2.08
2019-02-12T06:27:29.749Z,2.42
2019-02-12T06:29:59.989Z,3.60
2019-02-12T06:32:31.730Z,2.25
2019-02-12T06:35:02.894Z,2.80
2019-02-12T06:37:33.001Z,3.50
2019-02-12T06:40:03.325Z,3.25
2019-02-12T06:42:34.374Z,2.52
2019-02-12T06:45:06.836Z,2.50
2019-02-12T06:47:40.064Z,2.60
2019-02-12T06:50:13.265Z,3.37
2019-02-12T06:52:43.365Z,1.98
2019-02-12T06:55:15.781Z,2.37
2019-02-12T06:57:45.961Z,2.80
2019-02-12T07:00:16.421Z,2.90
2019-02-12T07:03:16.133Z,2.12
2019-02-12T07:05:59.401Z,1.90
2019-02-12T07:08:45.749Z,1.87
2019-02-12T07:11:39.673Z,2.72
2019-02-12T07:14:32.377Z,2.12
2019-02-12T07:17:17.299Z,2.33
2019-02-12T07:20:14.322Z,3.27
2019-02-12T07:22:59.221Z,2.87
2019-02-12T07:25:51.467Z,2.52
2019-02-12T07:28:31.921Z,1.98
2019-02-12T07:31:23.795Z,2.10
2019-02-12T07:34:14.758Z,3.35
2019-02-12T07:37:09.138Z,1.95
2019-02-12T07:39:55.181Z,2.62
2019-02-12T07:42:55.423Z,2.55
2019-02-12T07:46:07.302Z,2.40
2019-02-12T07:48:45.295Z,2.02
2019-02-12T07:51:44.130Z,1.92
2019-02-12T07:54:39.571Z,2.98
2019-02-12T07:57:31.638Z,3.02
2019-02-12T08:00:06.332Z,2.75
2019-02-12T08:03:05.389Z,3.52
2019-02-12T08:06:00.872Z,2.67
2019-02-12T08:08:53.867Z,2.95
2019-02-12T08:11:45.889Z,3.12
2019-02-12T08:14:29.557Z,2.22
2019-02-12T08:17:27.883Z,3.20
2019-02-12T08:20:08.301Z,2.65
2019-02-12T08:23:02.071Z,2.98
2019-02-12T08:25:54.458Z,3.05
2019-02-12T08:29:00.197Z,2.98
2019-02-12T08:32:06.314Z,2.90
2019-02-12T08:35:16.826Z,3.60
2019-02-12T08:38:12.669Z,3.20
2019-02-12T08:41:02.269Z,3.17
2019-02-12T08:43:54.978Z,3.12
2019-02-12T08:47:04.770Z,2.83
2019-02-12T08:49:47.975Z,2.25
2019-02-12T08:53:09.725Z,3.45
2019-02-12T08:56:11.801Z,2.45
2019-02-12T08:59:23.105Z,3.83
2019-02-12T09:02:22.013Z,3.90
2019-02-12T09:05:35.749Z,3.90
2019-02-12T09:08:19.327Z,3.80
2019-02-12T09:11:08.746Z,2.72
2019-02-12T09:13:44.653Z,3.15
2019-02-12T09:16:51.077Z,2.37
2019-02-12T09:19:31.272Z,2.92
2019-02-12T09:22:23.858Z,3.72
2019-02-12T09:25:17.257Z,4.12
2019-02-12T09:28:00.530Z,3.00
2019-02-12T09:30:50.137Z,2.30
2019-02-12T09:33:43.405Z,2.27
2019-02-12T09:36:31.170Z,2.22
2019-02-12T09:39:11.374Z,2.50
2019-02-12T09:41:48.754Z,3.05
2019-02-12T09:44:29.209Z,2.72
2019-02-12T09:47:30.727Z,2.75
2019-02-12T09:50:26.153Z,2.95
2019-02-12T09:53:21.569Z,2.62
2019-02-12T09:56:14.102Z,3.00
2019-02-12T09:59:13.045Z,2.72
2019-02-12T10:01:56.517Z,2.98
2019-02-12T10:05:04.353Z,2.62
2019-02-12T10:08:06.321Z,1.60
2019-02-12T10:10:58.865Z,2.50
2019-02-12T10:13:56.881Z,1.42
2019-02-12T10:16:49.717Z,2.02
2019-02-12T10:19:24.420Z,2.40
2019-02-12T10:22:13.330Z,2.00
2019-02-12T10:25:02.570Z,2.30
2019-02-12T10:28:08.972Z,3.62
2019-02-12T10:31:01.886Z,2.30
2019-02-12T10:33:31.977Z,2.00
2019-02-12T10:36:02.073Z,3.10
2019-02-12T10:38:32.155Z,3.45
2019-02-12T10:41:02.321Z,2.90
2019-02-12T10:43:32.477Z,3.62
2019-02-12T10:46:02.558Z,3.50
2019-02-12T10:48:32.649Z,2.20
2019-02-12T10:51:02.846Z,4.05
2019-02-12T10:53:33.873Z,2.55
2019-02-12T10:56:04.684Z,2.47
2019-02-12T10:58:35.738Z,3.35
2019-02-12T11:01:06.837Z,2.87
2019-02-12T11:03:36.912Z,2.45
2019-02-12T11:06:09.985Z,3.35
2019-02-12T11:08:40.085Z,2.12
2019-02-12T11:11:10.166Z,3.55
2019-02-12T11:13:40.233Z,2.72
2019-02-12T11:16:10.348Z,3.52
2019-02-12T11:18:40.505Z,3.10
2019-02-12T11:21:12.166Z,3.37
2019-02-12T11:23:42.456Z,2.98
2019-02-12T11:26:12.582Z,3.00
2019-02-12T11:28:43.607Z,3.60
2019-02-12T11:31:13.677Z,3.20
2019-02-12T11:33:43.782Z,3.00
2019-02-12T11:36:14.777Z,3.92
2019-02-12T11:38:44.865Z,2.72
2019-02-12T11:41:15.938Z,3.17
2019-02-12T11:43:46.005Z,2.95
2019-02-12T11:46:16.118Z,2.70
2019-02-12T11:48:46.213Z,3.80
2019-02-12T11:51:16.281Z,2.70
2019-02-12T11:53:46.365Z,2.90
2019-02-12T11:56:16.449Z,3.52
2019-02-12T11:58:46.558Z,3.40
2019-02-12T12:01:18.267Z,3.20
2019-02-12T12:03:48.342Z,2.65
2019-02-12T12:06:24.214Z,2.92
2019-02-12T12:08:58.301Z,2.87
2019-02-12T12:11:29.366Z,3.65
2019-02-12T12:14:01.417Z,2.90
2019-02-12T12:16:31.494Z,3.25
2019-02-12T12:19:01.598Z,3.10
2019-02-12T12:21:31.686Z,3.67
2019-02-12T12:24:01.766Z,3.40
2019-02-12T12:26:31.854Z,2.90
2019-02-12T12:29:01.930Z,3.42
2019-02-12T12:31:32.054Z,3.08
2019-02-12T12:34:02.166Z,2.60
2019-02-12T12:36:32.226Z,3.00
2019-02-12T12:39:02.318Z,2.00
2019-02-12T12:41:33.362Z,2.85
2019-02-12T12:44:03.442Z,3.02
2019-02-12T12:46:33.511Z,2.75
2019-02-12T12:49:03.596Z,3.02
2019-02-12T12:51:34.555Z,2.80
2019-02-12T12:54:04.707Z,3.25
2019-02-12T12:56:34.798Z,3.10
2019-02-12T12:59:04.882Z,2.80
2019-02-12T13:01:34.964Z,2.85
2019-02-12T13:04:05.072Z,3.77
2019-02-12T13:06:35.142Z,2.65
2019-02-12T13:09:06.854Z,3.92
2019-02-12T13:11:36.937Z,2.30
2019-02-12T13:14:07.014Z,2.95
2019-02-12T13:16:38.068Z,3.27
2019-02-12T13:19:09.090Z,3.35
2019-02-12T13:21:39.174Z,3.05
2019-02-12T13:24:09.834Z,2.95
2019-02-12T13:26:39.916Z,2.40
2019-02-12T13:29:10.026Z,2.42
2019-02-12T13:31:40.948Z,2.98
2019-02-12T13:34:11.030Z,3.58
2019-02-12T13:36:41.346Z,2.50
2019-02-12T13:39:11.411Z,2.62
2019-02-12T13:41:42.394Z,3.17
2019-02-12T13:44:12.490Z,2.35
2019-02-12T13:46:43.470Z,2.70
2019-02-12T13:49:13.542Z,2.52
2019-02-12T13:51:43.626Z,2.40
2019-02-12T13:54:13.700Z,3.47
2019-02-12T13:56:43.775Z,2.25
2019-02-12T13:59:13.852Z,2.45
2019-02-12T14:01:43.970Z,2.65
2019-02-12T14:04:14.040Z,3.00
2019-02-12T14:06:44.114Z,2.95
2019-02-12T14:09:14.190Z,2.85
2019-02-12T14:11:44.268Z,3.08
2019-02-12T14:14:15.298Z,2.87
2019-02-12T14:16:45.386Z,2.52
2019-02-12T14:19:15.486Z,3.08
2019-02-12T14:21:45.554Z,2.77
2019-02-12T14:24:15.458Z,2.30
2019-02-12T14:26:46.530Z,3.27
2019-02-12T14:29:16.702Z,3.25
2019-02-12T14:31:54.977Z,3.60
2019-02-12T14:34:25.062Z,3.00
2019-02-12T14:36:55.146Z,2.75
2019-02-12T14:39:27.854Z,4.37
2019-02-12T14:41:58.900Z,4.60
2019-02-12T14:44:29.004Z,3.15
2019-02-12T14:47:00.054Z,2.83
2019-02-12T14:49:31.082Z,3.12
2019-02-12T14:52:02.139Z,4.25
2019-02-12T14:54:32.203Z,2.87
2019-02-12T14:57:03.222Z,4.80
2019-02-12T14:59:33.322Z,3.10
2019-02-12T15:02:05.373Z,4.80
2019-02-12T15:04:35.442Z,3.33
2019-02-12T15:07:05.537Z,3.27
2019-02-12T15:09:35.602Z,2.72
2019-02-12T15:12:05.678Z,3.42
2019-02-12T15:14:35.770Z,3.17
2019-02-12T15:17:06.882Z,3.52
2019-02-12T15:19:36.969Z,3.42
2019-02-12T15:22:07.130Z,3.75
2019-02-12T15:24:37.214Z,3.62
2019-02-12T15:27:07.302Z,4.65
2019-02-12T15:29:37.391Z,4.00
2019-02-12T15:32:07.471Z,4.35
2019-02-12T15:34:37.575Z,4.25
2019-02-12T15:37:07.655Z,3.67
2019-02-12T15:39:37.747Z,4.25
2019-02-12T15:42:08.795Z,3.65
2019-02-12T15:44:38.876Z,3.45
2019-02-12T15:47:08.990Z,3.02
2019-02-12T15:49:39.066Z,3.65
2019-02-12T15:52:09.147Z,4.30
2019-02-12T15:54:39.238Z,3.80
2019-02-12T15:57:09.322Z,3.45
2019-02-12T15:59:39.407Z,4.30
2019-02-12T16:02:11.215Z,5.45
2019-02-12T16:04:41.247Z,4.78
2019-02-12T16:07:12.350Z,5.47
2019-02-12T16:09:42.439Z,5.25
2019-02-12T16:12:13.578Z,5.42
2019-02-12T16:14:44.534Z,5.42
2019-02-12T16:17:16.451Z,5.45
2019-02-12T16:19:47.006Z,5.60
2019-02-12T16:22:18.347Z,4.90
2019-02-12T16:24:49.439Z,4.60
2019-02-12T16:27:19.503Z,4.60
2019-02-12T16:29:49.579Z,7.10
2019-02-12T16:32:20.617Z,4.60
2019-02-12T16:34:50.714Z,5.22
2019-02-12T16:37:22.647Z,7.62
2019-02-12T16:39:54.981Z,5.12
2019-02-12T16:42:26.583Z,6.60
2019-02-12T16:44:56.695Z,6.08
2019-02-12T16:47:26.804Z,5.80
2019-02-12T16:49:59.620Z,5.25
2019-02-12T16:52:29.705Z,5.12
2019-02-12T16:54:59.852Z,4.10
2019-02-12T16:57:31.350Z,5.35
2019-02-12T17:00:01.824Z,6.15
2019-02-12T17:02:31.935Z,7.60
2019-02-12T17:05:02.032Z,5.37
2019-02-12T17:07:32.451Z,6.40
2019-02-12T17:10:04.651Z,7.80
2019-02-12T17:12:34.727Z,6.60
2019-02-12T17:15:10.891Z,6.37
2019-02-12T17:17:43.446Z,5.90
2019-02-12T17:20:24.091Z,5.15
2019-02-12T17:22:54.145Z,5.28
2019-02-12T17:25:24.335Z,5.55
2019-02-12T17:27:55.373Z,6.72
2019-02-12T17:30:25.470Z,5.30
2019-02-12T17:32:55.547Z,5.58
2019-02-12T17:35:27.607Z,4.90
2019-02-12T17:37:57.671Z,5.72
2019-02-12T17:40:30.017Z,6.08
2019-02-12T17:43:00.015Z,6.85
2019-02-12T17:45:32.036Z,6.40
2019-02-12T17:48:02.123Z,6.12
2019-02-12T17:50:32.244Z,6.90
2019-02-12T17:53:02.324Z,5.50
2019-02-12T17:55:32.655Z,6.72
2019-02-12T17:58:02.743Z,5.37
2019-02-12T18:00:40.703Z,5.65
2019-02-12T18:03:11.799Z,6.47
2019-02-12T18:05:43.426Z,7.03
2019-02-12T18:08:13.499Z,8.08
2019-02-12T18:10:43.655Z,6.20
2019-02-12T18:13:14.743Z,5.37
2019-02-12T18:15:44.847Z,5.78
2019-02-12T18:18:14.931Z,5.95
2019-02-12T18:20:48.435Z,6.58
2019-02-12T18:23:20.728Z,8.23
2019-02-12T18:25:50.827Z,7.40
2019-02-12T18:28:20.923Z,6.33
2019-02-12T18:30:50.994Z,7.75
2019-02-12T18:33:21.169Z,11.60
2019-02-12T18:35:51.218Z,7.53
2019-02-12T18:38:21.295Z,6.78
2019-02-12T18:40:51.387Z,7.62
2019-02-12T18:43:21.483Z,8.13
2019-02-12T18:45:54.584Z,9.60
2019-02-12T18:48:30.395Z,12.47
2019-02-12T18:51:03.201Z,14.05
2019-02-12T18:53:37.998Z,9.23
2019-02-12T18:56:08.095Z,12.70
2019-02-12T18:58:39.175Z,11.33
2019-02-12T19:01:09.255Z,11.75
2019-02-12T19:03:39.407Z,8.45
2019-02-12T19:06:09.499Z,8.65
2019-02-12T19:08:39.626Z,6.67
2019-02-12T19:11:10.692Z,5.70
2019-02-12T19:13:40.775Z,6.08
2019-02-12T19:16:13.413Z,5.03
2019-02-12T19:18:45.447Z,6.60
2019-02-12T19:21:15.567Z,8.70
2019-02-12T19:23:45.663Z,7.50
2019-02-12T19:26:15.775Z,9.03
2019-02-12T19:28:45.895Z,9.95
2019-02-12T19:31:22.796Z,7.83
2019-02-12T19:33:52.899Z,12.58
2019-02-12T19:36:22.983Z,9.83
2019-02-12T19:38:53.059Z,9.43
2019-02-12T19:41:24.143Z,7.15
2019-02-12T19:43:55.144Z,6.45
2019-02-12T19:46:25.231Z,5.37
2019-02-12T19:48:57.990Z,4.53
2019-02-12T19:51:28.071Z,4.65
2019-02-12T19:53:58.175Z,4.55
2019-02-12T19:56:28.266Z,4.92
2019-02-12T19:58:58.341Z,4.30
2019-02-12T20:01:28.432Z,3.77
2019-02-12T20:03:58.512Z,4.47
2019-02-12T20:06:29.907Z,3.60
2019-02-12T20:08:59.989Z,3.87
2019-02-12T20:11:30.823Z,5.45
2019-02-12T20:14:01.892Z,4.08
2019-02-12T20:16:31.967Z,4.70
2019-02-12T20:19:03.127Z,5.03
2019-02-12T20:21:34.190Z,5.25
2019-02-12T20:24:04.269Z,4.62
2019-02-12T20:26:34.358Z,4.47
2019-02-12T20:29:04.589Z,5.20
2019-02-12T20:31:40.628Z,5.47
2019-02-12T20:34:10.720Z,5.17
2019-02-12T20:36:40.834Z,5.85
2019-02-12T20:39:10.935Z,5.80
2019-02-12T20:41:41.003Z,5.12
2019-02-12T20:44:12.215Z,7.85
2019-02-12T20:46:48.301Z,6.25
2019-02-12T20:49:27.413Z,6.20
2019-02-12T20:52:00.561Z,10.50
2019-02-12T20:54:30.656Z,9.85
2019-02-12T20:57:01.683Z,7.20
2019-02-12T20:59:34.872Z,5.60
2019-02-12T21:02:05.119Z,6.25
2019-02-12T21:04:36.220Z,6.03
2019-02-12T21:07:10.332Z,5.35
2019-02-12T21:09:48.397Z,5.20
2019-02-12T21:12:20.011Z,4.90
2019-02-12T21:14:50.221Z,6.87
2019-02-12T21:17:21.328Z,6.10
2019-02-12T21:19:53.476Z,5.85
2019-02-12T21:22:24.637Z,9.68
2019-02-12T21:24:58.993Z,6.83
2019-02-12T21:27:29.125Z,7.53
2019-02-12T21:29:59.240Z,6.00
2019-02-12T21:32:30.262Z,6.72
2019-02-12T21:35:00.340Z,6.30
2019-02-12T21:37:30.440Z,6.78
2019-02-12T21:40:00.528Z,6.30
2019-02-12T21:42:30.749Z,5.60
2019-02-12T21:45:01.784Z,5.30
2019-02-12T21:47:31.877Z,5.15
2019-02-12T21:50:02.789Z,5.12
2019-02-12T21:52:34.128Z,3.67
2019-02-12T21:55:14.523Z,4.90
2019-02-12T21:57:44.630Z,4.92
2019-02-12T22:00:22.687Z,4.95
2019-02-12T22:02:52.784Z,5.00
2019-02-12T22:05:22.852Z,5.17
2019-02-12T22:07:52.993Z,5.17
2019-02-12T22:10:30.543Z,5.00
2019-02-12T22:13:00.627Z,5.22
2019-02-12T22:15:30.720Z,5.55
2019-02-12T22:18:04.944Z,4.40
2019-02-12T22:20:38.516Z,4.87
2019-02-12T22:23:08.676Z,4.03
2019-02-12T22:25:40.664Z,4.72
2019-02-12T22:28:11.672Z,4.58
2019-02-12T22:30:41.896Z,4.62
2019-02-12T22:33:11.996Z,4.70
2019-02-12T22:35:42.089Z,4.72
2019-02-12T22:38:13.156Z,4.40
2019-02-12T22:40:43.256Z,4.90
2019-02-12T22:43:13.332Z,4.90
2019-02-12T22:45:45.372Z,4.97
2019-02-12T22:48:15.445Z,4.75
2019-02-12T22:50:45.536Z,4.72
2019-02-12T22:53:15.664Z,4.95
2019-02-12T22:55:46.660Z,5.25
2019-02-12T22:58:16.740Z,5.92
2019-02-12T23:00:55.296Z,5.83
2019-02-12T23:03:26.197Z,5.50
2019-02-12T23:05:56.277Z,5.50
2019-02-12T23:08:26.464Z,4.97
2019-02-12T23:10:57.520Z,6.50
2019-02-12T23:13:28.548Z,5.08
2019-02-12T23:15:59.616Z,5.10
2019-02-12T23:18:29.712Z,4.00
2019-02-12T23:20:59.800Z,5.65
2019-02-12T23:23:29.876Z,5.33
2019-02-12T23:25:59.956Z,5.17
2019-02-12T23:28:30.044Z,5.10
2019-02-12T23:31:00.122Z,6.03
2019-02-12T23:33:30.208Z,5.00
2019-02-12T23:36:00.282Z,4.70
2019-02-12T23:38:30.372Z,5.33
2019-02-12T23:41:00.464Z,7.10
2019-02-12T23:43:30.555Z,5.70
2019-02-12T23:46:01.640Z,4.62
2019-02-12T23:48:31.752Z,6.15
2019-02-12T23:51:01.833Z,4.42
2019-02-12T23:53:32.908Z,4.50
2019-02-12T23:56:02.988Z,4.90
2019-02-12T23:58:34.068Z,5.72
